Partington, United Kingdom
Current Conditions -  °F | °C
As of 6:20 AM on Tuesday 21 Oct 2014 (Local Time) from EGCC Reporting Station
Light Rain Light Rain  
Wind Chill: 54°   Ceiling: 1600
Heat Index: 54°   Visibility: 4mi
Dew Point: 54°   Wind: 30mph
Humidity: 100%   Direction: 270°W
Pressure: 29.35"   Gusts: 43mph
Location:  53.42°N, 2.43°W
Report Text: EGCC 210520Z 27026G37KT 210V290 6000 -RA SCT011 BKN016 BKN022CB 12/12 Q0994 RERA NOSIG
Loading
Personal Weather Stations






























Interactive Weather Map
Tropical Storm Tracking
New forecast layout! Learn more

10-Day Weather Forecast

Advertisements
Track Severe Weather on mobile